»·PEaware :: N137SB KFUL-KSBA

N137SB :: KFUL-KSBA

FLIGHT INFORMATION

Flight Status: Arrived
Operator: Privately registered:
United States
More flights under this callsign
Pilot: Dean S. (16265)
Aircraft: Unknown
(G58)
More flights by this aircraft type
Origin: KFUL Fullerton Mun
United States
Destination: KSBA Santa Barbara Mun
United States
More flights between these airports :: More routes between these airports
Route: +BUCCK
File this flight plan on PilotEdge
Remarks:
Altitude:
(Current/Filed)
10,500ft
Speed:
(Current/Filed)
200kts
Departed: 23-Oct-20 09:54 AM
Arrived: 23-Oct-20 10:36 AM
Distance/Time
Traveled:
98nm/0:41
Distance/Time
To Go:
Arrived

Flight Plot

Page will automatically refresh every two minutes.

Flight plan parsing failed; only flown route is shown


Map Options




Map Legend


Flown Route
Filed Route
Departure Airport
Arrival Airport
Navaid (VOR, NDB)
Fix

Horizontal Profiles

Position Reports

Time Latitude Longitude Heading Altitude Ground
Speed
23-Oct-20 09:30 33.871600 -117.977728 72 97ft 0kts
23-Oct-20 09:31 33.871600 -117.977728 72 97ft 0kts
23-Oct-20 09:32 33.871600 -117.977728 72 97ft 0kts
23-Oct-20 09:33 33.871600 -117.977728 72 97ft 0kts
23-Oct-20 09:34 33.871600 -117.977728 72 97ft 0kts
23-Oct-20 09:35 33.871600 -117.977728 72 97ft 0kts
23-Oct-20 09:36 33.871600 -117.977728 72 97ft 0kts
23-Oct-20 09:37 33.871600 -117.977728 72 97ft 0kts
23-Oct-20 09:38 33.871600 -117.977728 72 97ft 0kts
23-Oct-20 09:39 33.871600 -117.977728 72 97ft 0kts
23-Oct-20 09:40 33.871600 -117.977728 72 97ft 0kts
23-Oct-20 09:41 33.871600 -117.977728 72 97ft 0kts
23-Oct-20 09:42 33.871600 -117.977728 72 97ft 0kts
23-Oct-20 09:43 33.871600 -117.977728 72 97ft 0kts
23-Oct-20 09:44 33.871600 -117.977728 72 97ft 0kts
23-Oct-20 09:45 33.871600 -117.977728 72 97ft 0kts
23-Oct-20 09:46 33.871600 -117.977728 72 97ft 0kts
23-Oct-20 09:47 33.871600 -117.977728 72 97ft 0kts
23-Oct-20 09:48 33.871600 -117.977728 72 97ft 0kts
23-Oct-20 09:49 33.872206 -117.976558 83 101ft 0kts
23-Oct-20 09:50 33.872556 -117.974991 72 102ft 0kts
23-Oct-20 09:51 33.872556 -117.974991 72 102ft 0kts
23-Oct-20 09:52 33.872734 -117.974798 3 102ft 8kts
23-Oct-20 09:53 33.871044 -117.984895 257 175ft 115kts
23-Oct-20 09:54 33.899124 -117.997690 359 1930ft 163kts
23-Oct-20 09:55 33.946420 -118.001018 345 3255ft 176kts
23-Oct-20 09:56 33.996478 -118.020427 342 3222ft 188kts
23-Oct-20 09:57 34.045579 -118.037168 344 3393ft 187kts
23-Oct-20 09:58 34.093569 -118.049312 359 4256ft 166kts
23-Oct-20 09:59 34.138693 -118.054775 345 5455ft 161kts
23-Oct-20 10:00 34.181964 -118.067242 345 6656ft 158kts
23-Oct-20 10:01 34.224820 -118.079564 345 7868ft 157kts
23-Oct-20 10:02 34.266945 -118.091680 345 9060ft 154kts
23-Oct-20 10:03 34.291814 -118.126597 314 10206ft 152kts
23-Oct-20 10:04 34.314401 -118.169833 264 10392ft 179kts
23-Oct-20 10:05 34.308853 -118.230642 263 10400ft 183kts
23-Oct-20 10:06 34.310400 -118.291779 277 10396ft 182kts
23-Oct-20 10:07 34.316827 -118.352815 277 10397ft 182kts
23-Oct-20 10:08 34.323226 -118.413974 277 10398ft 183kts
23-Oct-20 10:09 34.329498 -118.474495 277 10399ft 182kts
23-Oct-20 10:10 34.335784 -118.535035 277 10399ft 182kts
23-Oct-20 10:11 34.342035 -118.595345 277 10398ft 182kts
23-Oct-20 10:12 34.348378 -118.656453 277 10400ft 183kts
23-Oct-20 10:13 34.354693 -118.717214 277 10398ft 182kts
23-Oct-20 10:15 34.360419 -118.778412 271 10400ft 182kts
23-Oct-20 10:16 34.361305 -118.839944 271 10399ft 183kts
23-Oct-20 10:17 34.362203 -118.901433 270 10399ft 183kts
23-Oct-20 10:18 34.363053 -118.962622 271 10072ft 182kts
23-Oct-20 10:19 34.365361 -119.023635 272 9307ft 181kts
23-Oct-20 10:20 34.368154 -119.083984 269 8681ft 178kts
23-Oct-20 10:21 34.358658 -119.142148 261 8145ft 178kts
23-Oct-20 10:22 34.357904 -119.201081 273 7729ft 174kts
23-Oct-20 10:23 34.359629 -119.259695 274 7377ft 173kts
23-Oct-20 10:24 34.362593 -119.316972 272 7201ft 166kts
23-Oct-20 10:25 34.365322 -119.371451 272 7001ft 164kts
23-Oct-20 10:26 34.369252 -119.427963 275 6200ft 169kts
23-Oct-20 10:27 34.373615 -119.485024 275 5479ft 166kts
23-Oct-20 10:28 34.382409 -119.536168 289 4894ft 152kts
23-Oct-20 10:29 34.396501 -119.585548 288 4090ft 154kts
23-Oct-20 10:30 34.412631 -119.629649 292 3196ft 138kts
23-Oct-20 10:31 34.424448 -119.673795 279 2175ft 135kts
23-Oct-20 10:31 34.429305 -119.709673 276 1808ft 122kts
23-Oct-20 10:33 34.429871 -119.757848 266 1386ft 124kts
23-Oct-20 10:33 34.428867 -119.788585 270 846ft 87kts
23-Oct-20 10:35 34.428119 -119.823396 267 210ft 87kts
23-Oct-20 10:35 34.428039 -119.842175 337 12ft 15kts
23-Oct-20 10:36 34.430117 -119.843182 258 12ft 0kts
23-Oct-20 10:37 34.430117 -119.843182 258 12ft 0kts
23-Oct-20 10:38 0.000408 0.013975 359 3ft 0kts
23-Oct-20 10:39 0.000408 0.013975 359 3ft 0kts
23-Oct-20 10:40 0.000408 0.013975 359 3ft 0kts
23-Oct-20 10:41 34.429358 -119.844661 334 11ft 0kts
23-Oct-20 10:42 34.429359 -119.844661 334 12ft 0kts
23-Oct-20 10:43 34.429359 -119.844661 334 12ft 0kts
23-Oct-20 10:44 34.429359 -119.844661 334 12ft 0kts
23-Oct-20 10:45 34.429359 -119.844661 334 12ft 0kts
23-Oct-20 10:46 34.429359 -119.844661 334 12ft 0kts
23-Oct-20 10:47 34.429359 -119.844661 334 12ft 0kts
23-Oct-20 10:48 34.429359 -119.844661 334 12ft 0kts
23-Oct-20 10:49 34.429359 -119.844661 334 12ft 0kts

Navigation Log

Ident Type
Flight plan parsing failed, navigation log unavailable